Time;durP1;ratioP1;P1;durP2;ratioP2;P2;SDS_P1;SDS_P2;PMS_P1;PMS_P2;Temp;Humidity;BMP_temperature;BMP_pressure;BME280_temperature;BME280_humidity;BME280_pressure;Samples;Min_cycle;Max_cycle;Signal;HPM_P1;HPM_P2
2022/11/01 00:01:07;;;;;;;6.73;3.47;;;16.30;99.90;;;;;;5018862;28;20217;-79
2022/11/01 00:03:32;;;;;;;10.50;3.80;;;16.30;99.90;;;;;;5018749;28;20195;-80
2022/11/01 00:05:58;;;;;;;5.07;3.47;;;16.30;99.90;;;;;;5003011;28;20204;-80
2022/11/01 00:08:24;;;;;;;5.90;3.23;;;16.40;99.90;;;;;;5035333;28;20178;-78
2022/11/01 00:10:49;;;;;;;8.10;3.80;;;16.40;99.90;;;;;;5036439;28;20757;-77
2022/11/01 00:13:15;;;;;;;11.23;3.23;;;16.40;99.90;;;;;;5018430;28;20537;-78
2022/11/01 00:15:41;;;;;;;13.03;4.00;;;16.30;99.90;;;;;;5036076;28;20328;-77
2022/11/01 00:18:07;;;;;;;8.30;3.77;;;16.30;99.90;;;;;;5036081;28;20182;-77
2022/11/01 00:20:33;;;;;;;5.07;3.43;;;16.30;99.90;;;;;;5034514;28;20395;-76
2022/11/01 00:22:58;;;;;;;11.00;5.20;;;16.20;99.90;;;;;;5034497;28;20182;-78
2022/11/01 00:25:24;;;;;;;12.77;4.10;;;16.10;99.90;;;;;;5036327;28;20182;-78
2022/11/01 00:27:49;;;;;;;14.03;4.40;;;16.00;99.90;;;;;;5036403;28;20270;-76
2022/11/01 00:30:15;;;;;;;10.53;3.93;;;16.00;99.90;;;;;;5018623;28;20183;-76
2022/11/01 00:32:41;;;;;;;8.00;5.50;;;15.90;99.90;;;;;;5036121;28;20244;-77
2022/11/01 00:35:07;;;;;;;9.07;4.13;;;15.90;99.90;;;;;;5036588;28;20613;-78
2022/11/01 00:37:33;;;;;;;7.10;4.00;;;15.90;99.90;;;;;;5035934;28;20444;-77
2022/11/01 00:39:58;;;;;;;11.43;4.67;;;15.80;99.90;;;;;;5035013;28;20417;-77
2022/11/01 00:42:24;;;;;;;8.20;3.60;;;15.80;99.90;;;;;;5035777;28;20217;-77
2022/11/01 00:44:49;;;;;;;5.73;3.67;;;15.70;99.90;;;;;;5035654;28;20186;-78
2022/11/01 00:47:15;;;;;;;11.70;4.40;;;15.70;99.90;;;;;;5034299;28;20183;-77
2022/11/01 00:49:41;;;;;;;10.70;4.33;;;15.60;99.90;;;;;;5018254;28;20185;-76
2022/11/01 00:52:06;;;;;;;7.73;4.53;;;15.60;99.90;;;;;;5036458;28;20170;-76
2022/11/01 00:54:32;;;;;;;8.07;4.43;;;15.60;99.90;;;;;;5034135;28;20229;-77
2022/11/01 00:56:57;;;;;;;9.60;4.50;;;15.60;99.90;;;;;;5033948;28;20541;-77
2022/11/01 00:59:23;;;;;;;12.20;4.73;;;15.60;99.90;;;;;;5035074;28;20182;-76
2022/11/01 01:01:48;;;;;;;6.10;4.30;;;15.50;99.90;;;;;;5034387;28;20206;-77
2022/11/01 01:04:14;;;;;;;11.00;4.90;;;15.50;99.90;;;;;;5034913;28;20236;-76
2022/11/01 01:06:39;;;;;;;11.73;4.83;;;15.50;99.90;;;;;;5018221;28;20205;-77
2022/11/01 01:09:05;;;;;;;8.53;4.50;;;15.50;99.90;;;;;;5034362;28;20514;-76
2022/11/01 01:11:31;;;;;;;5.60;4.07;;;15.50;99.90;;;;;;5035483;28;20273;-77
2022/11/01 01:13:57;;;;;;;9.13;4.00;;;15.60;99.90;;;;;;5035783;28;20383;-77
2022/11/01 01:16:22;;;;;;;7.17;4.00;;;15.60;99.90;;;;;;5018382;28;20255;-77
2022/11/01 01:18:48;;;;;;;9.20;4.80;;;15.60;99.90;;;;;;5034763;28;20510;-77
2022/11/01 01:21:14;;;;;;;7.33;4.70;;;15.70;99.90;;;;;;5034789;28;20217;-77
2022/11/01 01:23:40;;;;;;;12.50;4.10;;;15.70;99.90;;;;;;5034503;28;20209;-77
2022/11/01 01:26:10;;;;;;;10.80;4.30;;;15.70;99.90;;;;;;5035690;28;20405;-77
2022/11/01 01:28:36;;;;;;;8.73;3.83;;;15.80;99.90;;;;;;5035424;28;20410;-77
2022/11/01 01:31:09;;;;;;;8.67;4.20;;;15.90;99.90;;;;;;5034571;28;20842;-76
2022/11/01 01:33:35;;;;;;;12.30;3.93;;;16.00;99.90;;;;;;5033886;28;20806;-77
2022/11/01 01:36:02;;;;;;;8.23;4.83;;;16.10;99.90;;;;;;5035190;28;20413;-77
2022/11/01 01:38:27;;;;;;;10.00;3.53;;;16.10;99.90;;;;;;5034847;28;20409;-77
2022/11/01 01:40:53;;;;;;;10.23;3.17;;;16.10;99.90;;;;;;5034131;28;20460;-78
2022/11/01 01:43:18;;;;;;;8.23;3.33;;;16.10;99.90;;;;;;5035243;28;20178;-77
2022/11/01 01:45:44;;;;;;;6.93;3.20;;;16.20;99.90;;;;;;5035190;28;20506;-77
2022/11/01 01:48:16;;;;;;;4.43;3.10;;;16.20;99.90;;;;;;5033694;28;20258;-76
2022/11/01 01:50:57;;;;;;;4.77;3.20;;;16.30;99.90;;;;;;5035199;28;20245;-76
2022/11/01 01:53:26;;;;;;;10.63;3.60;;;16.40;99.90;;;;;;5035372;28;20459;-76
2022/11/01 01:56:01;;;;;;;5.73;3.13;;;16.30;99.90;;;;;;5034953;28;20552;-77
2022/11/01 01:58:34;;;;;;;3.93;3.00;;;16.40;99.90;;;;;;5033539;28;20429;-79
2022/11/01 02:00:59;;;;;;;4.87;2.80;;;16.30;99.90;;;;;;5033784;28;20514;-77
2022/11/01 02:03:30;;;;;;;4.23;3.00;;;16.30;99.90;;;;;;5017415;28;20421;-76
2022/11/01 02:06:08;;;;;;;4.20;3.20;;;16.40;99.90;;;;;;5033834;28;20174;-76
2022/11/01 02:08:36;;;;;;;3.90;3.00;;;16.40;99.90;;;;;;5034161;28;20393;-76
2022/11/01 02:11:05;;;;;;;4.23;2.57;;;16.30;99.90;;;;;;5033807;28;20417;-77
2022/11/01 02:13:31;;;;;;;5.33;2.70;;;16.30;99.90;;;;;;5033113;28;20548;-77
2022/11/01 02:16:12;;;;;;;8.27;3.23;;;16.30;99.90;;;;;;5035118;28;20765;-77
2022/11/01 02:18:46;;;;;;;5.50;2.80;;;16.30;99.90;;;;;;5034612;28;20946;-77
2022/11/01 02:21:48;;;;;;;7.90;3.07;;;16.30;99.90;;;;;;5033488;28;20531;-77
2022/11/01 02:24:16;;;;;;;5.27;3.23;;;16.30;99.90;;;;;;5033311;28;20479;-79
2022/11/01 02:27:03;;;;;;;4.27;2.63;;;16.30;99.90;;;;;;5034324;28;20413;-76
2022/11/01 02:29:50;;;;;;;5.60;2.97;;;16.40;99.90;;;;;;5033368;28;20417;-79
2022/11/01 02:32:16;;;;;;;5.43;2.97;;;16.40;99.90;;;;;;5033990;28;20516;-77
2022/11/01 02:34:58;;;;;;;4.60;2.80;;;16.40;99.90;;;;;;5032646;28;20484;-77
2022/11/01 02:37:31;;;;;;;6.97;3.10;;;16.50;99.90;;;;;;5034735;28;20174;-77
2022/11/01 02:40:11;;;;;;;3.80;2.57;;;16.50;99.90;;;;;;5033990;28;20404;-77
2022/11/01 02:42:45;;;;;;;5.10;3.40;;;16.50;99.90;;;;;;5032876;28;20439;-76
2022/11/01 02:45:27;;;;;;;7.70;3.10;;;16.50;99.90;;;;;;5033039;28;20743;-77
2022/11/01 02:47:57;;;;;;;4.47;3.20;;;16.40;99.90;;;;;;5032574;28;20395;-77
2022/11/01 02:50:27;;;;;;;3.27;2.60;;;16.50;99.90;;;;;;5034203;28;20398;-77
2022/11/01 02:52:54;;;;;;;4.63;3.73;;;16.40;99.90;;;;;;5034068;28;20448;-77
2022/11/01 02:55:34;;;;;;;6.60;3.03;;;16.40;99.90;;;;;;5032792;28;20488;-76
2022/11/01 02:58:03;;;;;;;7.10;3.50;;;16.40;99.90;;;;;;5034059;28;20375;-77
2022/11/01 03:00:34;;;;;;;5.20;3.13;;;16.40;99.90;;;;;;5033151;28;20490;-78
2022/11/01 03:03:09;;;;;;;6.00;3.30;;;16.40;99.90;;;;;;5026121;28;20429;-79
2022/11/01 03:05:38;;;;;;;6.27;3.00;;;16.30;99.90;;;;;;5026149;28;20398;-78
2022/11/01 03:08:07;;;;;;;4.73;2.70;;;16.30;99.90;;;;;;5025478;28;20951;-78
2022/11/01 03:11:02;;;;;;;8.37;3.10;;;16.30;99.90;;;;;;5026788;28;20405;-77
2022/11/01 03:13:33;;;;;;;4.20;2.67;;;16.30;99.90;;;;;;5027812;28;20407;-77
2022/11/01 03:16:11;;;;;;;5.90;2.80;;;16.30;99.90;;;;;;5029545;28;20421;-76
2022/11/01 03:18:46;;;;;;;8.03;2.93;;;16.30;99.90;;;;;;5033489;28;20395;-76
2022/11/01 03:21:17;;;;;;;11.20;3.47;;;16.30;99.90;;;;;;5037005;28;20454;-76
2022/11/01 03:23:49;;;;;;;6.20;2.87;;;16.40;99.90;;;;;;5037993;28;20859;-77
2022/11/01 03:26:22;;;;;;;5.27;3.70;;;16.30;99.90;;;;;;5038275;28;20389;-77
2022/11/01 03:28:51;;;;;;;5.90;2.70;;;16.30;99.90;;;;;;5037890;28;20430;-76
2022/11/01 03:31:21;;;;;;;4.60;2.50;;;16.30;99.90;;;;;;5038107;28;20423;-77
2022/11/01 03:33:55;;;;;;;4.60;2.63;;;16.40;99.90;;;;;;5035977;28;20465;-77
2022/11/01 03:36:24;;;;;;;5.67;2.87;;;16.40;99.90;;;;;;5037240;28;20457;-77
2022/11/01 03:39:00;;;;;;;4.17;2.40;;;16.40;99.90;;;;;;5037163;28;21073;-77
2022/11/01 03:41:28;;;;;;;4.80;3.03;;;16.40;99.90;;;;;;5035980;28;20796;-76
2022/11/01 03:43:54;;;;;;;8.67;3.00;;;16.40;99.90;;;;;;5035773;28;21255;-77
2022/11/01 03:46:20;;;;;;;3.47;2.80;;;16.40;99.90;;;;;;5034514;28;20431;-79
2022/11/01 03:48:45;;;;;;;5.33;3.10;;;16.40;99.90;;;;;;5012055;28;20410;-78
2022/11/01 03:51:11;;;;;;;5.10;3.00;;;16.40;99.90;;;;;;5015963;28;20399;-78
2022/11/01 03:53:37;;;;;;;8.33;2.80;;;16.50;99.90;;;;;;5031698;28;20178;-79
2022/11/01 03:56:03;;;;;;;5.00;2.63;;;16.60;99.90;;;;;;5014342;28;20396;-78
2022/11/01 03:58:40;;;;;;;7.63;2.63;;;16.70;99.90;;;;;;5035006;28;20635;-77
2022/11/01 04:01:10;;;;;;;4.60;2.60;;;16.70;99.90;;;;;;5037077;28;20247;-76
2022/11/01 04:03:36;;;;;;;6.90;2.47;;;16.70;99.90;;;;;;5036032;28;20376;-77
2022/11/01 04:06:02;;;;;;;4.50;2.57;;;16.60;99.90;;;;;;5015752;28;20410;-77
2022/11/01 04:08:27;;;;;;;3.73;2.57;;;16.70;99.90;;;;;;5029617;28;20293;-77
2022/11/01 04:10:53;;;;;;;8.23;3.00;;;16.60;99.90;;;;;;5032714;28;20516;-77
2022/11/01 04:13:18;;;;;;;5.57;2.40;;;16.70;99.90;;;;;;5013152;28;20197;-77
2022/11/01 04:21:22;;;;;;;2.90;2.20;;;16.70;99.90;;;;;;5035531;28;20796;-77
2022/11/01 04:23:48;;;;;;;7.00;3.03;;;16.70;99.90;;;;;;5036877;28;20490;-76
2022/11/01 04:26:22;;;;;;;8.63;4.20;;;16.70;99.90;;;;;;5036305;28;20400;-77
2022/11/01 04:28:57;;;;;;;5.93;3.30;;;16.70;99.90;;;;;;5036270;28;20598;-77
2022/11/01 04:31:29;;;;;;;6.73;3.47;;;16.70;99.90;;;;;;5033706;28;20403;-76
2022/11/01 04:33:55;;;;;;;7.20;2.70;;;16.60;99.90;;;;;;5035964;28;20508;-76
2022/11/01 04:36:22;;;;;;;3.50;2.33;;;16.60;99.90;;;;;;5035040;28;20860;-76
2022/11/01 04:38:51;;;;;;;3.37;2.40;;;16.60;99.90;;;;;;5035877;28;20413;-77
2022/11/01 04:41:18;;;;;;;7.30;2.63;;;16.60;99.90;;;;;;5037307;28;20550;-77
2022/11/01 04:43:45;;;;;;;4.87;2.23;;;16.50;99.90;;;;;;5035738;28;20391;-77
2022/11/01 04:46:10;;;;;;;5.77;2.67;;;16.60;99.90;;;;;;5018218;28;20396;-77
2022/11/01 04:48:36;;;;;;;5.43;2.47;;;16.50;99.90;;;;;;5035814;28;20420;-77
2022/11/01 04:51:01;;;;;;;8.67;3.30;;;16.50;99.90;;;;;;5017470;28;20197;-77
2022/11/01 04:53:28;;;;;;;5.13;2.63;;;16.50;99.90;;;;;;5035036;28;20220;-76
2022/11/01 04:55:54;;;;;;;6.63;2.80;;;16.50;99.90;;;;;;5036007;28;20371;-77
2022/11/01 04:58:19;;;;;;;8.17;2.40;;;16.50;99.90;;;;;;5036066;28;20919;-76
2022/11/01 05:00:45;;;;;;;3.90;2.80;;;16.50;99.90;;;;;;5017830;28;20779;-76
2022/11/01 05:03:11;;;;;;;8.93;2.90;;;16.50;99.90;;;;;;5036333;28;20186;-76
2022/11/01 05:05:38;;;;;;;5.90;3.27;;;16.50;99.90;;;;;;5018279;28;20229;-76
2022/11/01 05:08:05;;;;;;;7.47;3.30;;;16.50;99.90;;;;;;5035953;28;20432;-76
2022/11/01 05:10:31;;;;;;;5.67;2.53;;;16.40;99.90;;;;;;5035846;28;20443;-76
2022/11/01 05:12:57;;;;;;;4.70;2.93;;;16.40;99.90;;;;;;5034054;28;20392;-77
2022/11/01 05:15:23;;;;;;;4.63;2.20;;;16.40;99.90;;;;;;5035828;28;20416;-77
2022/11/01 05:17:48;;;;;;;5.50;2.57;;;16.40;99.90;;;;;;5034224;28;20421;-77
2022/11/01 05:20:14;;;;;;;7.90;3.07;;;16.40;99.90;;;;;;5017547;28;20182;-77
2022/11/01 05:22:40;;;;;;;8.03;3.00;;;16.40;99.90;;;;;;5035133;28;20202;-80
2022/11/01 05:25:08;;;;;;;4.03;2.30;;;16.40;99.90;;;;;;5017357;28;20415;-76
2022/11/01 05:27:34;;;;;;;4.30;2.40;;;16.40;99.90;;;;;;5033696;28;20187;-78
2022/11/01 05:30:00;;;;;;;5.30;2.60;;;16.40;99.90;;;;;;5033943;28;20919;-79
2022/11/01 05:32:26;;;;;;;3.73;2.70;;;16.40;99.90;;;;;;5035682;28;20417;-78
2022/11/01 05:34:51;;;;;;;4.33;2.60;;;16.50;99.90;;;;;;5033798;28;20789;-78
2022/11/01 05:37:17;;;;;;;7.33;2.90;;;16.50;99.90;;;;;;5034454;28;20186;-77
2022/11/01 05:39:43;;;;;;;7.73;3.23;;;16.60;99.90;;;;;;5034640;28;20600;-78
2022/11/01 05:42:08;;;;;;;6.60;3.00;;;16.60;99.90;;;;;;5035012;28;20210;-78
2022/11/01 05:44:34;;;;;;;5.60;3.00;;;16.60;99.90;;;;;;5033753;28;20182;-78
2022/11/01 05:47:02;;;;;;;5.03;2.77;;;16.60;99.90;;;;;;5033349;28;20175;-78
2022/11/01 05:49:28;;;;;;;3.87;2.23;;;16.70;99.90;;;;;;5034866;28;20273;-78
2022/11/01 05:51:53;;;;;;;9.77;2.60;;;16.70;99.90;;;;;;5033533;28;20448;-78
2022/11/01 05:54:19;;;;;;;5.67;2.70;;;16.60;99.90;;;;;;5017236;28;20651;-78
2022/11/01 05:56:44;;;;;;;10.50;2.60;;;16.60;99.90;;;;;;5033133;28;20201;-78
2022/11/01 05:59:10;;;;;;;3.80;2.20;;;16.50;99.90;;;;;;5017155;28;20304;-78
2022/11/01 06:01:35;;;;;;;4.30;2.23;;;16.50;99.90;;;;;;5034800;28;20210;-78
2022/11/01 06:04:01;;;;;;;3.63;2.00;;;16.40;99.90;;;;;;5034558;28;20182;-78
2022/11/01 06:06:31;;;;;;;5.17;2.20;;;16.40;99.90;;;;;;5017001;28;20669;-77
2022/11/01 06:08:57;;;;;;;3.43;1.90;;;16.50;99.90;;;;;;5034597;28;20652;-77
2022/11/01 06:11:24;;;;;;;4.23;2.93;;;16.50;99.90;;;;;;5017352;28;20926;-78
2022/11/01 06:13:54;;;;;;;4.87;1.87;;;16.50;99.90;;;;;;5034033;28;20405;-78
2022/11/01 06:16:20;;;;;;;3.73;2.10;;;16.50;99.90;;;;;;5033456;28;20500;-78
2022/11/01 06:18:46;;;;;;;4.63;1.60;;;16.50;99.90;;;;;;5034309;28;20471;-78
2022/11/01 06:21:12;;;;;;;3.90;1.60;;;16.40;99.90;;;;;;5033401;28;20476;-78
2022/11/01 06:23:37;;;;;;;2.33;1.30;;;16.40;99.90;;;;;;5033393;28;20463;-78
2022/11/01 06:26:04;;;;;;;2.10;1.57;;;16.30;99.90;;;;;;5032985;28;20217;-77
2022/11/01 06:28:30;;;;;;;3.97;1.33;;;16.30;99.90;;;;;;5033548;28;20178;-78
2022/11/01 06:30:59;;;;;;;4.00;1.60;;;16.30;99.90;;;;;;5016847;28;20435;-79
2022/11/01 06:33:25;;;;;;;4.70;1.90;;;16.20;99.90;;;;;;5033083;28;20475;-77
2022/11/01 06:35:51;;;;;;;4.03;1.90;;;16.10;99.90;;;;;;5033148;28;20421;-78
2022/11/01 06:38:16;;;;;;;1.20;1.03;;;16.00;99.90;;;;;;5016863;28;20292;-77
2022/11/01 06:40:42;;;;;;;3.07;1.10;;;15.80;99.90;;;;;;5034334;28;20190;-78
2022/11/01 06:43:08;;;;;;;2.00;1.10;;;15.70;99.90;;;;;;5016823;28;20186;-79
2022/11/01 06:45:34;;;;;;;3.63;1.73;;;15.60;99.90;;;;;;5033199;28;20537;-78
2022/11/01 06:47:59;;;;;;;3.73;1.20;;;15.50;99.90;;;;;;5033328;28;20416;-78
2022/11/01 06:50:25;;;;;;;4.17;1.30;;;15.40;99.90;;;;;;5033426;28;20174;-77
2022/11/01 06:52:54;;;;;;;2.97;1.27;;;15.30;99.90;;;;;;5033035;28;20184;-77
2022/11/01 06:55:19;;;;;;;4.40;1.10;;;15.20;99.90;;;;;;5038854;28;20226;-78
2022/11/01 06:57:53;;;;;;;3.00;1.27;;;15.20;99.90;;;;;;5037574;28;20772;-80
2022/11/01 07:00:19;;;;;;;4.73;1.50;;;15.10;99.90;;;;;;5038846;28;20589;-78
2022/11/01 07:02:45;;;;;;;3.13;1.07;;;15.10;99.90;;;;;;5038624;28;20496;-79
2022/11/01 07:05:10;;;;;;;3.13;0.90;;;15.00;99.90;;;;;;5036687;28;20630;-78
2022/11/01 07:07:36;;;;;;;3.50;1.50;;;15.00;99.90;;;;;;5021021;28;20604;-78
2022/11/01 07:10:01;;;;;;;3.33;1.00;;;14.80;99.90;;;;;;5037948;28;20184;-78
2022/11/01 07:12:27;;;;;;;6.80;1.40;;;14.80;99.90;;;;;;5020322;28;20261;-79
2022/11/01 07:14:53;;;;;;;3.77;0.80;;;14.70;99.90;;;;;;5019808;28;20178;-77
2022/11/01 07:17:18;;;;;;;3.07;0.83;;;14.70;99.90;;;;;;5037107;28;20185;-78
2022/11/01 07:19:44;;;;;;;2.53;0.93;;;14.60;99.90;;;;;;5036985;28;20174;-77
2022/11/01 07:22:09;;;;;;;3.20;1.10;;;14.60;99.90;;;;;;5036884;28;20532;-77
2022/11/01 07:24:35;;;;;;;4.83;0.90;;;14.60;99.90;;;;;;5037115;28;20678;-78
2022/11/01 07:27:01;;;;;;;6.03;1.40;;;14.50;99.90;;;;;;5036952;28;20182;-78
2022/11/01 07:29:26;;;;;;;1.30;0.80;;;14.50;99.90;;;;;;5036537;28;20186;-77
2022/11/01 07:31:52;;;;;;;3.40;0.90;;;14.50;99.90;;;;;;5036864;28;20301;-77
2022/11/01 07:34:17;;;;;;;5.23;1.27;;;14.40;99.90;;;;;;5036753;28;20186;-77
2022/11/01 07:36:43;;;;;;;3.30;1.07;;;14.40;99.90;;;;;;5036730;28;20180;-77
2022/11/01 07:39:09;;;;;;;2.50;0.80;;;14.30;99.90;;;;;;4995200;28;20646;-77
2022/11/01 07:41:34;;;;;;;4.10;1.33;;;14.20;99.90;;;;;;5018297;28;20257;-78
2022/11/01 07:44:00;;;;;;;6.73;1.20;;;14.20;99.90;;;;;;5000263;28;20422;-78
2022/11/01 07:46:26;;;;;;;5.17;1.20;;;14.20;99.90;;;;;;5016997;28;20183;-77
2022/11/01 07:48:51;;;;;;;11.67;1.67;;;14.20;99.90;;;;;;5017102;28;20182;-78
2022/11/01 07:51:17;;;;;;;6.03;1.40;;;14.10;99.90;;;;;;5000570;28;20214;-77
2022/11/01 07:53:43;;;;;;;3.67;1.10;;;14.10;99.90;;;;;;5017726;28;20236;-77
2022/11/01 07:56:08;;;;;;;4.17;1.73;;;14.10;99.90;;;;;;5016278;28;20417;-77
2022/11/01 07:58:34;;;;;;;7.13;1.70;;;14.10;99.90;;;;;;5016583;28;20186;-79
2022/11/01 08:01:00;;;;;;;10.53;1.93;;;14.10;99.90;;;;;;5016667;28;20261;-77
2022/11/01 08:03:25;;;;;;;4.77;1.57;;;14.10;99.90;;;;;;5016928;28;20615;-78
2022/11/01 08:05:51;;;;;;;6.43;2.13;;;14.10;99.90;;;;;;5000166;28;20453;-78
2022/11/01 08:08:18;;;;;;;9.07;2.20;;;14.10;99.90;;;;;;5016736;28;20270;-77
2022/11/01 08:10:44;;;;;;;5.50;1.60;;;14.10;99.90;;;;;;5016234;28;20841;-77
2022/11/01 08:13:18;;;;;;;9.40;1.57;;;14.00;99.90;;;;;;5016087;28;21264;-76
2022/11/01 08:15:45;;;;;;;5.47;1.23;;;14.00;99.90;;;;;;5032659;28;20493;-77
2022/11/01 08:18:10;;;;;;;11.23;2.10;;;14.10;99.90;;;;;;5016372;28;20488;-77
2022/11/01 08:20:36;;;;;;;9.70;2.67;;;14.10;99.90;;;;;;5016471;28;20764;-77
2022/11/01 08:23:03;;;;;;;11.13;1.70;;;14.10;99.90;;;;;;5019032;28;20230;-79
2022/11/01 08:25:29;;;;;;;5.07;1.50;;;14.10;99.90;;;;;;5035803;28;20555;-78
2022/11/01 08:27:59;;;;;;;6.73;1.70;;;14.20;99.90;;;;;;5018881;28;20440;-79
2022/11/01 08:30:24;;;;;;;5.00;2.00;;;14.20;99.90;;;;;;5035650;28;20413;-78
2022/11/01 08:32:57;;;;;;;7.77;1.60;;;14.20;99.90;;;;;;5036804;28;20424;-78
2022/11/01 08:35:22;;;;;;;12.10;1.77;;;14.20;99.90;;;;;;5036351;28;20595;-79
2022/11/01 08:37:52;;;;;;;6.27;1.47;;;14.30;99.90;;;;;;5035992;28;20416;-78
2022/11/01 08:40:19;;;;;;;5.17;1.23;;;14.30;99.90;;;;;;5036585;28;20175;-78
2022/11/01 08:42:45;;;;;;;7.33;1.97;;;14.40;99.90;;;;;;5018565;28;20774;-79
2022/11/01 08:45:11;;;;;;;7.33;1.40;;;14.40;99.90;;;;;;5034225;28;20433;-79
2022/11/01 08:47:38;;;;;;;6.00;1.43;;;14.40;99.90;;;;;;5031296;28;21053;-80
2022/11/01 08:50:04;;;;;;;6.23;1.63;;;14.50;99.90;;;;;;4995830;28;20436;-80
2022/11/01 08:52:30;;;;;;;8.13;1.57;;;14.60;99.90;;;;;;5030497;28;20798;-79
2022/11/01 08:54:56;;;;;;;6.90;1.47;;;14.60;99.90;;;;;;5029883;28;20472;-81
2022/11/01 08:57:21;;;;;;;5.23;2.10;;;14.60;99.90;;;;;;5028527;28;20467;-80
2022/11/01 08:59:47;;;;;;;5.30;1.23;;;14.60;99.90;;;;;;5029050;28;20321;-80
2022/11/01 09:02:12;;;;;;;6.27;1.80;;;14.70;99.90;;;;;;5029129;28;20206;-80
2022/11/01 09:04:38;;;;;;;6.13;1.90;;;14.70;99.90;;;;;;4996265;28;20182;-79
2022/11/01 09:07:04;;;;;;;10.37;2.17;;;14.80;99.90;;;;;;5013094;28;20927;-78
2022/11/01 09:09:29;;;;;;;5.40;1.27;;;14.80;99.90;;;;;;5014860;28;20190;-80
2022/11/01 09:11:55;;;;;;;7.40;2.03;;;14.90;99.90;;;;;;5018261;28;20182;-80
2022/11/01 09:14:23;;;;;;;13.53;2.30;;;15.00;99.90;;;;;;5034499;28;20621;-80
2022/11/01 09:16:50;;;;;;;5.10;1.40;;;15.00;99.90;;;;;;5017844;28;20182;-80
2022/11/01 09:19:15;;;;;;;8.63;1.13;;;15.20;99.90;;;;;;5034019;28;20417;-79
2022/11/01 09:21:45;;;;;;;4.50;1.60;;;15.30;99.90;;;;;;5034098;28;20469;-80
2022/11/01 09:24:12;;;;;;;8.30;1.40;;;15.50;99.90;;;;;;5035201;28;20436;-78
2022/11/01 09:26:38;;;;;;;2.87;1.33;;;15.70;99.90;;;;;;5034545;28;20467;-79
2022/11/01 09:29:03;;;;;;;5.60;1.90;;;15.70;99.90;;;;;;5033728;28;20470;-78
2022/11/01 09:31:29;;;;;;;3.20;1.23;;;15.80;99.90;;;;;;5034874;28;20413;-78
2022/11/01 09:33:56;;;;;;;4.77;1.27;;;16.00;99.90;;;;;;5035294;28;20179;-79
2022/11/01 09:36:23;;;;;;;2.03;1.00;;;16.30;99.90;;;;;;5035276;28;20185;-79
2022/11/01 09:38:49;;;;;;;4.97;1.47;;;16.40;99.90;;;;;;5035031;28;20388;-80
2022/11/01 09:41:33;;;;;;;8.13;1.47;;;16.30;99.90;;;;;;5032600;28;20465;-79
2022/11/01 09:44:02;;;;;;;9.23;1.70;;;16.50;99.90;;;;;;5028100;28;20482;-80
2022/11/01 09:46:31;;;;;;;4.50;1.20;;;16.70;99.90;;;;;;5028333;28;20380;-80
2022/11/01 09:49:02;;;;;;;3.10;1.33;;;16.60;99.90;;;;;;5029810;28;20405;-79
2022/11/01 09:51:29;;;;;;;2.93;1.30;;;16.70;99.90;;;;;;5030502;28;20383;-81
2022/11/01 09:53:58;;;;;;;4.03;2.50;;;16.70;99.90;;;;;;5027947;28;20530;-80
2022/11/01 09:56:38;;;;;;;7.60;1.40;;;16.60;99.90;;;;;;5031068;28;20881;-79
2022/11/01 09:59:20;;;;;;;4.57;1.40;;;16.70;99.90;;;;;;5033440;28;20417;-80
2022/11/01 10:01:55;;;;;;;3.93;1.27;;;17.00;99.90;;;;;;5033878;28;20920;-82
2022/11/01 10:04:45;;;;;;;4.90;1.30;;;17.30;99.90;;;;;;5034875;28;20409;-80
2022/11/01 10:07:36;;;;;;;5.53;1.70;;;17.60;99.90;;;;;;5034050;28;20393;-81
2022/11/01 10:10:29;;;;;;;6.33;1.60;;;17.80;99.90;;;;;;5033472;28;20396;-81
2022/11/01 10:13:24;;;;;;;7.17;1.30;;;18.00;99.90;;;;;;5033256;28;20771;-80
2022/11/01 10:16:16;;;;;;;4.73;1.20;;;18.40;99.90;;;;;;5032786;28;20399;-82
2022/11/01 10:18:54;;;;;;;6.43;1.37;;;18.50;99.90;;;;;;5033418;28;20420;-81
2022/11/01 10:21:21;;;;;;;4.97;1.10;;;18.60;99.90;;;;;;5034163;28;20431;-83
2022/11/01 10:23:52;;;;;;;2.13;1.07;;;18.30;99.90;;;;;;5033686;28;20895;-81
2022/11/01 10:26:25;;;;;;;8.50;1.43;;;18.40;99.90;;;;;;5016006;28;20960;-81
2022/11/01 10:29:07;;;;;;;2.90;1.30;;;18.50;99.90;;;;;;5032538;28;20510;-82
2022/11/01 10:31:40;;;;;;;6.33;1.60;;;18.90;99.90;;;;;;5033505;28;20880;-79
2022/11/01 10:34:27;;;;;;;5.83;1.50;;;19.50;99.90;;;;;;5033064;28;20368;-79
2022/11/01 10:37:02;;;;;;;4.53;1.30;;;19.90;99.90;;;;;;5027947;28;20672;-80
2022/11/01 10:39:54;;;;;;;4.87;1.80;;;20.20;99.90;;;;;;5026510;28;20805;-80
2022/11/01 10:42:20;;;;;;;4.60;1.33;;;20.00;99.90;;;;;;5028799;28;20446;-80
2022/11/01 10:44:54;;;;;;;1.97;1.17;;;20.20;99.90;;;;;;5028878;28;20908;-80
2022/11/01 10:47:21;;;;;;;7.43;1.53;;;20.60;99.90;;;;;;5028384;28;20638;-81
2022/11/01 10:50:13;;;;;;;4.57;1.37;;;21.10;99.90;;;;;;5028875;28;20406;-79
2022/11/01 10:52:50;;;;;;;12.63;1.50;;;21.10;99.90;;;;;;5032339;28;20399;-79
2022/11/01 10:55:37;;;;;;;3.10;1.60;;;20.70;99.90;;;;;;5031978;28;20459;-80
2022/11/01 10:58:09;;;;;;;5.53;1.43;;;21.20;99.90;;;;;;5032957;28;20432;-80
2022/11/01 11:00:38;;;;;;;2.50;1.27;;;21.50;99.90;;;;;;5033444;28;20463;-80
2022/11/01 11:03:17;;;;;;;5.03;1.40;;;21.90;99.90;;;;;;5015642;28;20431;-80
2022/11/01 11:05:43;;;;;;;7.40;1.43;;;22.50;99.90;;;;;;5031794;28;20391;-80
2022/11/01 11:08:15;;;;;;;4.47;1.80;;;22.80;99.90;;;;;;4999290;28;20421;-80
2022/11/01 11:10:43;;;;;;;9.70;4.60;;;22.80;99.90;;;;;;5032221;28;20427;-80
2022/11/01 11:13:09;;;;;;;4.10;1.70;;;22.80;99.90;;;;;;5031838;28;20420;-80
2022/11/01 11:15:55;;;;;;;6.57;1.53;;;23.10;99.90;;;;;;5033331;28;20383;-80
2022/11/01 11:18:26;;;;;;;4.70;2.53;;;22.90;99.90;;;;;;5032873;28;20401;-81
2022/11/01 11:20:59;;;;;;;5.50;1.90;;;22.30;99.90;;;;;;5033226;28;20437;-80
2022/11/01 11:23:28;;;;;;;9.50;2.20;;;21.60;99.90;;;;;;5031102;28;20461;-80
2022/11/01 11:26:01;;;;;;;5.50;1.73;;;21.80;99.90;;;;;;5033397;28;20421;-85
2022/11/01 11:28:30;;;;;;;5.70;1.50;;;21.70;99.90;;;;;;5031843;28;20417;-80
2022/11/01 11:31:10;;;;;;;8.20;1.60;;;21.00;99.90;;;;;;5032994;28;20388;-81
2022/11/01 11:33:36;;;;;;;6.83;1.63;;;20.60;99.90;;;;;;5033379;28;20414;-83
2022/11/01 11:36:02;;;;;;;7.43;2.60;;;20.30;99.90;;;;;;4999007;28;20399;-84
2022/11/01 11:38:47;;;;;;;5.10;1.60;;;20.10;99.90;;;;;;5015915;28;20186;-84
2022/11/01 11:41:29;;;;;;;5.40;1.90;;;20.20;99.90;;;;;;5035014;28;20542;-84
2022/11/01 11:43:55;;;;;;;7.67;1.87;;;20.10;99.90;;;;;;5035147;28;21160;-85
2022/11/01 11:46:23;;;;;;;5.37;1.10;;;19.90;99.90;;;;;;5018745;28;20403;-84
2022/11/01 11:49:03;;;;;;;4.83;2.20;;;19.80;99.90;;;;;;5035237;28;20212;-83
2022/11/01 11:51:31;;;;;;;8.87;1.90;;;19.70;99.90;;;;;;5035262;28;20425;-84
2022/11/01 11:54:36;;;;;;;5.80;1.53;;;20.10;99.90;;;;;;5035981;28;20760;-83
2022/11/01 11:57:21;;;;;;;6.50;2.03;;;20.10;99.90;;;;;;5035026;28;20404;-84
2022/11/01 11:59:56;;;;;;;5.73;1.80;;;20.10;99.90;;;;;;5036512;28;20401;-84
2022/11/01 12:02:29;;;;;;;8.73;1.97;;;20.20;99.90;;;;;;5034831;28;20463;-84
2022/11/01 12:04:59;;;;;;;4.60;1.40;;;20.10;99.90;;;;;;5035884;28;20417;-83
2022/11/01 12:07:43;;;;;;;4.10;1.40;;;20.20;99.90;;;;;;5034831;28;20825;-84
2022/11/01 12:10:35;;;;;;;6.30;1.73;;;20.00;99.90;;;;;;5034687;28;20504;-83
2022/11/01 12:13:03;;;;;;;8.13;1.47;;;19.90;99.90;;;;;;5035335;28;20403;-83
2022/11/01 12:15:31;;;;;;;4.50;2.00;;;19.90;99.90;;;;;;5036665;28;20906;-83
2022/11/01 12:18:14;;;;;;;6.50;1.73;;;20.10;99.90;;;;;;5035102;28;20404;-83
2022/11/01 12:20:40;;;;;;;6.93;1.73;;;20.00;99.90;;;;;;5035385;28;20909;-82
2022/11/01 12:23:15;;;;;;;4.27;1.77;;;20.20;99.90;;;;;;5034788;28;20822;-82
2022/11/01 12:25:44;;;;;;;9.20;1.40;;;20.40;99.90;;;;;;5036116;28;20408;-82
2022/11/01 12:28:32;;;;;;;5.23;2.10;;;20.90;99.90;;;;;;5035800;28;20512;-82
2022/11/01 12:31:07;;;;;;;6.20;1.63;;;20.60;99.90;;;;;;5034596;28;20419;-81
2022/11/01 12:33:39;;;;;;;8.33;1.73;;;20.60;99.90;;;;;;5034548;28;20723;-82
2022/11/01 12:36:07;;;;;;;7.00;1.50;;;20.50;99.90;;;;;;5035954;28;20368;-82
2022/11/01 12:38:40;;;;;;;7.17;1.53;;;20.40;99.90;;;;;;5034149;28;20396;-82
2022/11/01 12:41:35;;;;;;;4.93;2.07;;;20.70;99.90;;;;;;5033927;28;20823;-81
2022/11/01 12:44:23;;;;;;;9.67;2.10;;;20.60;99.90;;;;;;5033323;28;20425;-82
2022/11/01 12:46:56;;;;;;;9.77;1.43;;;20.60;99.90;;;;;;5034227;28;20407;-82
2022/11/01 12:49:43;;;;;;;8.03;1.70;;;20.90;99.90;;;;;;5034172;28;20454;-81
2022/11/01 12:52:25;;;;;;;3.90;1.50;;;21.20;99.90;;;;;;5032771;28;20428;-81
2022/11/01 12:55:13;;;;;;;6.83;2.30;;;21.00;99.90;;;;;;5033731;28;20974;-82
2022/11/01 12:57:39;;;;;;;5.40;1.80;;;20.90;99.90;;;;;;5034008;28;20524;-81
2022/11/01 13:00:06;;;;;;;7.23;2.33;;;20.70;99.90;;;;;;5033959;28;20496;-82
2022/11/01 13:02:50;;;;;;;6.70;1.60;;;21.00;99.90;;;;;;5017599;28;20213;-82
2022/11/01 13:05:23;;;;;;;4.07;1.30;;;21.10;99.90;;;;;;5034893;28;20454;-82